KPPA/PPA METAR and TAF weather

Enter ICAO airport designator
Station Type Date Time Source
KPPA METAR 2019/06/17 04:35 UTC NOAA

KPPA 170435Z AUTO 17005KT 10SM CLR 17/14 A3003 RMK AO2 T01650142


Station Type Date Time Source
KPPA Decoded METAR 2019/06/17 04:35 UTC NOAA

Pampa, Perry Lefors Field Airport, TX, United States (KPPA) 35-36-46N 100-59-46W
Jun 17, 2019 - 12:35 AM EDT / 2019.06.17 0435 UTC
Wind: from the S (170 degrees) at 6 MPH (5 KT):0
Visibility: 10 mile(s):0
Sky conditions: clear
Temperature: 61.7 F (16.5 C)
Dew Point: 57.6 F (14.2 C)
Relative Humidity: 86%
Pressure (altimeter): 30.03 in. Hg (1016 hPa)
ob: KPPA 170435Z AUTO 17005KT 10SM CLR 17/14 A3003 RMK AO2 T01650142
cycle: 4

Station Type Date Time Source
KPPA TAF UTC NOAA

Error!

Example: see airport list